sensor_id;sensor_type;location;lat;lon;timestamp;temperature;humidity
22145;DHT22;11238;48.730;11.566;2023-02-21T00:00:29;4.90;99.90
22145;DHT22;11238;48.730;11.566;2023-02-21T00:03:13;4.90;99.90
22145;DHT22;11238;48.730;11.566;2023-02-21T00:05:57;5.10;99.90
22145;DHT22;11238;48.730;11.566;2023-02-21T00:08:42;5.00;99.90
22145;DHT22;11238;48.730;11.566;2023-02-21T00:11:26;5.00;99.90
22145;DHT22;11238;48.730;11.566;2023-02-21T00:14:11;4.90;99.90
22145;DHT22;11238;48.730;11.566;2023-02-21T00:16:56;4.80;99.90
22145;DHT22;11238;48.730;11.566;2023-02-21T00:19:40;4.80;99.90
22145;DHT22;11238;48.730;11.566;2023-02-21T00:22:28;4.90;99.90
22145;DHT22;11238;48.730;11.566;2023-02-21T00:25:12;4.90;99.90
22145;DHT22;11238;48.730;11.566;2023-02-21T00:27:59;4.90;99.90
22145;DHT22;11238;48.730;11.566;2023-02-21T00:30:44;4.90;99.90
22145;DHT22;11238;48.730;11.566;2023-02-21T00:33:28;5.00;99.90
22145;DHT22;11238;48.730;11.566;2023-02-21T00:36:16;4.80;99.90
22145;DHT22;11238;48.730;11.566;2023-02-21T00:39:01;4.80;99.90
22145;DHT22;11238;48.730;11.566;2023-02-21T00:41:46;4.90;99.90
22145;DHT22;11238;48.730;11.566;2023-02-21T00:44:30;5.00;99.90
22145;DHT22;11238;48.730;11.566;2023-02-21T00:47:14;4.80;99.90
22145;DHT22;11238;48.730;11.566;2023-02-21T00:49:58;4.70;99.90
22145;DHT22;11238;48.730;11.566;2023-02-21T00:52:43;4.60;99.90
22145;DHT22;11238;48.730;11.566;2023-02-21T00:55:49;4.60;99.90
22145;DHT22;11238;48.730;11.566;2023-02-21T00:58:34;4.50;99.90
22145;DHT22;11238;48.730;11.566;2023-02-21T01:01:18;4.50;99.90
22145;DHT22;11238;48.730;11.566;2023-02-21T01:04:24;4.50;99.90
22145;DHT22;11238;48.730;11.566;2023-02-21T01:07:09;4.50;99.90
22145;DHT22;11238;48.730;11.566;2023-02-21T01:09:53;4.60;99.90
22145;DHT22;11238;48.730;11.566;2023-02-21T01:12:37;4.60;99.90
22145;DHT22;11238;48.730;11.566;2023-02-21T01:15:22;4.60;99.90
22145;DHT22;11238;48.730;11.566;2023-02-21T01:18:06;4.60;99.90
22145;DHT22;11238;48.730;11.566;2023-02-21T01:20:51;4.60;99.90
22145;DHT22;11238;48.730;11.566;2023-02-21T01:23:35;4.50;99.90
22145;DHT22;11238;48.730;11.566;2023-02-21T01:26:19;4.50;99.90
22145;DHT22;11238;48.730;11.566;2023-02-21T01:29:04;4.40;99.90
22145;DHT22;11238;48.730;11.566;2023-02-21T01:31:49;4.40;99.90
22145;DHT22;11238;48.730;11.566;2023-02-21T01:34:34;4.30;99.90
22145;DHT22;11238;48.730;11.566;2023-02-21T01:37:19;4.40;99.90
22145;DHT22;11238;48.730;11.566;2023-02-21T01:40:03;4.40;99.90
22145;DHT22;11238;48.730;11.566;2023-02-21T01:42:48;4.60;99.90
22145;DHT22;11238;48.730;11.566;2023-02-21T01:45:46;4.50;99.90
22145;DHT22;11238;48.730;11.566;2023-02-21T01:48:32;4.40;99.90
22145;DHT22;11238;48.730;11.566;2023-02-21T01:51:23;4.30;99.90
22145;DHT22;11238;48.730;11.566;2023-02-21T01:54:09;4.30;99.90
22145;DHT22;11238;48.730;11.566;2023-02-21T01:56:55;4.30;99.90
22145;DHT22;11238;48.730;11.566;2023-02-21T01:59:42;4.40;99.90
22145;DHT22;11238;48.730;11.566;2023-02-21T02:05:28;4.50;99.90
22145;DHT22;11238;48.730;11.566;2023-02-21T02:08:15;4.50;99.90
22145;DHT22;11238;48.730;11.566;2023-02-21T02:11:19;4.60;99.90
22145;DHT22;11238;48.730;11.566;2023-02-21T02:14:36;4.50;99.90
22145;DHT22;11238;48.730;11.566;2023-02-21T02:17:29;4.50;99.90
22145;DHT22;11238;48.730;11.566;2023-02-21T02:23:18;4.50;99.90
22145;DHT22;11238;48.730;11.566;2023-02-21T02:28:59;4.40;99.90
22145;DHT22;11238;48.730;11.566;2023-02-21T02:43:03;4.50;99.90
22145;DHT22;11238;48.730;11.566;2023-02-21T02:45:43;4.50;99.90
22145;DHT22;11238;48.730;11.566;2023-02-21T02:48:35;4.40;99.90
22145;DHT22;11238;48.730;11.566;2023-02-21T02:51:06;4.30;99.90
22145;DHT22;11238;48.730;11.566;2023-02-21T02:53:33;4.30;99.90
22145;DHT22;11238;48.730;11.566;2023-02-21T02:56:06;4.20;99.90
22145;DHT22;11238;48.730;11.566;2023-02-21T02:58:53;4.20;99.90
22145;DHT22;11238;48.730;11.566;2023-02-21T03:15:35;3.60;99.90
22145;DHT22;11238;48.730;11.566;2023-02-21T03:18:11;3.60;99.90
22145;DHT22;11238;48.730;11.566;2023-02-21T03:20:41;3.70;99.90
22145;DHT22;11238;48.730;11.566;2023-02-21T03:23:07;3.70;99.90
22145;DHT22;11238;48.730;11.566;2023-02-21T03:25:36;3.70;99.90
22145;DHT22;11238;48.730;11.566;2023-02-21T03:28:04;3.70;99.90
22145;DHT22;11238;48.730;11.566;2023-02-21T03:30:38;3.70;99.90
22145;DHT22;11238;48.730;11.566;2023-02-21T03:33:07;3.70;99.90
22145;DHT22;11238;48.730;11.566;2023-02-21T03:35:33;3.70;99.90
22145;DHT22;11238;48.730;11.566;2023-02-21T03:37:59;3.80;99.90
22145;DHT22;11238;48.730;11.566;2023-02-21T03:40:31;3.80;99.90
22145;DHT22;11238;48.730;11.566;2023-02-21T03:43:01;3.90;99.90
22145;DHT22;11238;48.730;11.566;2023-02-21T03:45:31;4.00;99.90
22145;DHT22;11238;48.730;11.566;2023-02-21T03:48:17;3.90;99.90
22145;DHT22;11238;48.730;11.566;2023-02-21T03:50:43;4.00;99.90
22145;DHT22;11238;48.730;11.566;2023-02-21T03:53:10;4.10;99.90
22145;DHT22;11238;48.730;11.566;2023-02-21T03:55:39;4.20;99.90
22145;DHT22;11238;48.730;11.566;2023-02-21T03:58:12;4.20;99.90
22145;DHT22;11238;48.730;11.566;2023-02-21T04:00:38;4.10;99.90
22145;DHT22;11238;48.730;11.566;2023-02-21T04:03:04;4.10;99.90
22145;DHT22;11238;48.730;11.566;2023-02-21T04:05:39;4.10;99.90
22145;DHT22;11238;48.730;11.566;2023-02-21T04:08:05;4.10;99.90
22145;DHT22;11238;48.730;11.566;2023-02-21T04:10:32;4.10;99.90
22145;DHT22;11238;48.730;11.566;2023-02-21T04:12:58;4.00;99.90
22145;DHT22;11238;48.730;11.566;2023-02-21T04:15:24;4.00;99.90
22145;DHT22;11238;48.730;11.566;2023-02-21T04:17:50;4.00;99.90
22145;DHT22;11238;48.730;11.566;2023-02-21T04:20:17;3.90;99.90
22145;DHT22;11238;48.730;11.566;2023-02-21T04:22:50;4.00;99.90
22145;DHT22;11238;48.730;11.566;2023-02-21T04:25:18;4.00;99.90
22145;DHT22;11238;48.730;11.566;2023-02-21T04:27:48;4.00;99.90
22145;DHT22;11238;48.730;11.566;2023-02-21T04:30:15;4.00;99.90
22145;DHT22;11238;48.730;11.566;2023-02-21T04:32:41;4.00;99.90
22145;DHT22;11238;48.730;11.566;2023-02-21T04:35:11;4.00;99.90
22145;DHT22;11238;48.730;11.566;2023-02-21T04:37:37;3.90;99.90
22145;DHT22;11238;48.730;11.566;2023-02-21T04:40:03;3.90;99.90
22145;DHT22;11238;48.730;11.566;2023-02-21T04:42:32;3.90;99.90
22145;DHT22;11238;48.730;11.566;2023-02-21T04:44:57;3.90;99.90
22145;DHT22;11238;48.730;11.566;2023-02-21T04:47:23;3.80;99.90
22145;DHT22;11238;48.730;11.566;2023-02-21T04:49:49;3.70;99.90
22145;DHT22;11238;48.730;11.566;2023-02-21T04:52:18;3.60;99.90
22145;DHT22;11238;48.730;11.566;2023-02-21T04:54:47;3.60;99.90
22145;DHT22;11238;48.730;11.566;2023-02-21T04:57:14;3.40;99.90
22145;DHT22;11238;48.730;11.566;2023-02-21T04:59:43;3.30;99.90
22145;DHT22;11238;48.730;11.566;2023-02-21T05:02:09;3.20;99.90
22145;DHT22;11238;48.730;11.566;2023-02-21T05:04:36;3.10;99.90
22145;DHT22;11238;48.730;11.566;2023-02-21T05:07:03;3.00;99.90
22145;DHT22;11238;48.730;11.566;2023-02-21T05:09:29;3.00;99.90
22145;DHT22;11238;48.730;11.566;2023-02-21T05:12:18;2.90;99.90
22145;DHT22;11238;48.730;11.566;2023-02-21T05:14:43;2.80;99.90
22145;DHT22;11238;48.730;11.566;2023-02-21T05:17:09;2.70;99.90
22145;DHT22;11238;48.730;11.566;2023-02-21T05:19:36;2.70;99.90
22145;DHT22;11238;48.730;11.566;2023-02-21T05:22:02;2.70;99.90
22145;DHT22;11238;48.730;11.566;2023-02-21T05:24:32;2.70;99.90
22145;DHT22;11238;48.730;11.566;2023-02-21T05:26:59;2.70;99.90
22145;DHT22;11238;48.730;11.566;2023-02-21T05:29:25;2.70;99.90
22145;DHT22;11238;48.730;11.566;2023-02-21T05:31:51;2.60;99.90
22145;DHT22;11238;48.730;11.566;2023-02-21T05:34:16;2.60;99.90
22145;DHT22;11238;48.730;11.566;2023-02-21T05:36:44;2.50;99.90
22145;DHT22;11238;48.730;11.566;2023-02-21T05:39:10;2.60;99.90
22145;DHT22;11238;48.730;11.566;2023-02-21T05:41:37;2.60;99.90
22145;DHT22;11238;48.730;11.566;2023-02-21T05:44:04;2.60;99.90
22145;DHT22;11238;48.730;11.566;2023-02-21T05:46:32;2.60;99.90
22145;DHT22;11238;48.730;11.566;2023-02-21T05:49:00;2.60;99.90
22145;DHT22;11238;48.730;11.566;2023-02-21T05:51:27;2.50;99.90
22145;DHT22;11238;48.730;11.566;2023-02-21T05:53:53;2.60;99.90
22145;DHT22;11238;48.730;11.566;2023-02-21T05:56:19;2.50;99.90
22145;DHT22;11238;48.730;11.566;2023-02-21T05:58:46;2.40;99.90
22145;DHT22;11238;48.730;11.566;2023-02-21T06:01:12;2.30;99.90
22145;DHT22;11238;48.730;11.566;2023-02-21T06:03:37;2.30;99.90
22145;DHT22;11238;48.730;11.566;2023-02-21T06:06:03;2.30;99.90
22145;DHT22;11238;48.730;11.566;2023-02-21T06:08:29;2.30;99.90
22145;DHT22;11238;48.730;11.566;2023-02-21T06:10:55;2.30;99.90
22145;DHT22;11238;48.730;11.566;2023-02-21T06:13:21;2.30;99.90
22145;DHT22;11238;48.730;11.566;2023-02-21T06:15:46;2.30;99.90
22145;DHT22;11238;48.730;11.566;2023-02-21T06:18:13;2.20;99.90
22145;DHT22;11238;48.730;11.566;2023-02-21T06:20:39;2.00;99.90
22145;DHT22;11238;48.730;11.566;2023-02-21T06:23:05;1.90;99.90
22145;DHT22;11238;48.730;11.566;2023-02-21T06:25:31;1.90;99.90
22145;DHT22;11238;48.730;11.566;2023-02-21T06:27:57;1.90;99.90
22145;DHT22;11238;48.730;11.566;2023-02-21T06:30:23;1.90;99.90
22145;DHT22;11238;48.730;11.566;2023-02-21T06:32:49;1.90;99.90
22145;DHT22;11238;48.730;11.566;2023-02-21T06:35:15;2.00;99.90
22145;DHT22;11238;48.730;11.566;2023-02-21T06:37:41;2.10;99.90
22145;DHT22;11238;48.730;11.566;2023-02-21T06:40:08;2.10;99.90
22145;DHT22;11238;48.730;11.566;2023-02-21T06:42:34;2.20;99.90
22145;DHT22;11238;48.730;11.566;2023-02-21T06:45:01;2.10;99.90
22145;DHT22;11238;48.730;11.566;2023-02-21T06:47:27;2.20;99.90
22145;DHT22;11238;48.730;11.566;2023-02-21T06:49:53;2.20;99.90
22145;DHT22;11238;48.730;11.566;2023-02-21T06:52:19;2.30;99.90
22145;DHT22;11238;48.730;11.566;2023-02-21T06:54:45;2.30;99.90
22145;DHT22;11238;48.730;11.566;2023-02-21T06:57:10;2.40;99.90
22145;DHT22;11238;48.730;11.566;2023-02-21T06:59:36;2.40;99.90
22145;DHT22;11238;48.730;11.566;2023-02-21T07:02:02;2.40;99.90
22145;DHT22;11238;48.730;11.566;2023-02-21T07:04:29;2.40;99.90
22145;DHT22;11238;48.730;11.566;2023-02-21T07:06:55;2.40;99.90
22145;DHT22;11238;48.730;11.566;2023-02-21T07:09:21;2.50;99.90
22145;DHT22;11238;48.730;11.566;2023-02-21T07:11:47;2.60;99.90
22145;DHT22;11238;48.730;11.566;2023-02-21T07:14:13;2.70;99.90
22145;DHT22;11238;48.730;11.566;2023-02-21T07:16:39;2.80;99.90
22145;DHT22;11238;48.730;11.566;2023-02-21T07:19:05;2.90;99.90
22145;DHT22;11238;48.730;11.566;2023-02-21T07:21:31;3.00;99.90
22145;DHT22;11238;48.730;11.566;2023-02-21T07:23:56;3.10;99.90
22145;DHT22;11238;48.730;11.566;2023-02-21T07:26:22;3.10;99.90
22145;DHT22;11238;48.730;11.566;2023-02-21T07:28:48;3.30;99.90
22145;DHT22;11238;48.730;11.566;2023-02-21T07:31:14;3.30;99.90
22145;DHT22;11238;48.730;11.566;2023-02-21T07:33:41;3.40;99.90
22145;DHT22;11238;48.730;11.566;2023-02-21T07:36:08;3.40;99.90
22145;DHT22;11238;48.730;11.566;2023-02-21T07:38:34;3.50;99.90
22145;DHT22;11238;48.730;11.566;2023-02-21T07:41:02;3.50;99.90
22145;DHT22;11238;48.730;11.566;2023-02-21T07:43:29;3.60;99.90
22145;DHT22;11238;48.730;11.566;2023-02-21T07:45:55;3.60;99.90
22145;DHT22;11238;48.730;11.566;2023-02-21T07:48:21;3.70;99.90
22145;DHT22;11238;48.730;11.566;2023-02-21T07:50:48;3.80;99.90
22145;DHT22;11238;48.730;11.566;2023-02-21T07:53:14;4.00;99.90
22145;DHT22;11238;48.730;11.566;2023-02-21T07:55:40;4.20;99.90
22145;DHT22;11238;48.730;11.566;2023-02-21T07:58:06;4.40;99.90
22145;DHT22;11238;48.730;11.566;2023-02-21T08:00:33;4.60;99.90
22145;DHT22;11238;48.730;11.566;2023-02-21T08:02:58;4.80;99.90
22145;DHT22;11238;48.730;11.566;2023-02-21T08:05:25;4.90;99.90
22145;DHT22;11238;48.730;11.566;2023-02-21T08:07:51;5.10;99.90
22145;DHT22;11238;48.730;11.566;2023-02-21T08:10:22;5.20;99.90
22145;DHT22;11238;48.730;11.566;2023-02-21T08:12:48;5.30;99.90
22145;DHT22;11238;48.730;11.566;2023-02-21T08:15:14;5.40;99.90
22145;DHT22;11238;48.730;11.566;2023-02-21T08:17:40;5.60;99.90
22145;DHT22;11238;48.730;11.566;2023-02-21T08:20:07;5.80;99.90
22145;DHT22;11238;48.730;11.566;2023-02-21T08:22:32;5.90;99.90
22145;DHT22;11238;48.730;11.566;2023-02-21T08:24:58;6.00;99.90
22145;DHT22;11238;48.730;11.566;2023-02-21T08:27:24;6.20;99.90
22145;DHT22;11238;48.730;11.566;2023-02-21T08:29:50;6.40;99.90
22145;DHT22;11238;48.730;11.566;2023-02-21T08:32:17;6.50;99.90
22145;DHT22;11238;48.730;11.566;2023-02-21T08:34:44;6.40;99.90
22145;DHT22;11238;48.730;11.566;2023-02-21T08:37:10;6.50;99.90
22145;DHT22;11238;48.730;11.566;2023-02-21T08:39:49;6.70;99.90
22145;DHT22;11238;48.730;11.566;2023-02-21T08:42:18;6.80;99.90
22145;DHT22;11238;48.730;11.566;2023-02-21T08:44:44;6.90;99.90
22145;DHT22;11238;48.730;11.566;2023-02-21T08:47:12;7.10;99.90
22145;DHT22;11238;48.730;11.566;2023-02-21T08:49:38;7.20;99.90
22145;DHT22;11238;48.730;11.566;2023-02-21T08:52:06;7.30;99.90
22145;DHT22;11238;48.730;11.566;2023-02-21T08:54:32;7.40;99.90
22145;DHT22;11238;48.730;11.566;2023-02-21T08:56:58;7.60;99.90
22145;DHT22;11238;48.730;11.566;2023-02-21T08:59:24;7.70;99.90
22145;DHT22;11238;48.730;11.566;2023-02-21T09:01:52;7.90;99.90
22145;DHT22;11238;48.730;11.566;2023-02-21T09:04:18;8.00;99.90
22145;DHT22;11238;48.730;11.566;2023-02-21T09:06:43;8.20;99.90
22145;DHT22;11238;48.730;11.566;2023-02-21T09:09:09;8.40;99.90
22145;DHT22;11238;48.730;11.566;2023-02-21T09:11:35;8.60;99.90
22145;DHT22;11238;48.730;11.566;2023-02-21T09:14:01;8.60;99.90
22145;DHT22;11238;48.730;11.566;2023-02-21T09:16:31;8.60;99.90
22145;DHT22;11238;48.730;11.566;2023-02-21T09:18:58;8.70;99.90
22145;DHT22;11238;48.730;11.566;2023-02-21T09:21:27;8.80;99.90
22145;DHT22;11238;48.730;11.566;2023-02-21T09:23:55;8.80;99.90
22145;DHT22;11238;48.730;11.566;2023-02-21T09:26:21;8.80;99.90
22145;DHT22;11238;48.730;11.566;2023-02-21T09:28:50;8.90;99.90
22145;DHT22;11238;48.730;11.566;2023-02-21T09:31:16;9.00;99.90
22145;DHT22;11238;48.730;11.566;2023-02-21T09:33:43;9.10;99.90
22145;DHT22;11238;48.730;11.566;2023-02-21T09:36:09;9.20;99.90
22145;DHT22;11238;48.730;11.566;2023-02-21T09:38:36;9.10;99.90
22145;DHT22;11238;48.730;11.566;2023-02-21T09:41:04;9.30;99.90
22145;DHT22;11238;48.730;11.566;2023-02-21T09:43:36;9.40;99.90
22145;DHT22;11238;48.730;11.566;2023-02-21T09:46:13;9.50;99.90
22145;DHT22;11238;48.730;11.566;2023-02-21T09:48:41;9.60;99.90
22145;DHT22;11238;48.730;11.566;2023-02-21T09:51:08;9.70;99.90
22145;DHT22;11238;48.730;11.566;2023-02-21T09:53:38;9.70;99.10
22145;DHT22;11238;48.730;11.566;2023-02-21T09:58:41;9.80;98.30
22145;DHT22;11238;48.730;11.566;2023-02-21T10:01:28;9.90;97.20
22145;DHT22;11238;48.730;11.566;2023-02-21T10:06:42;10.20;98.10
22145;DHT22;11238;48.730;11.566;2023-02-21T10:12:19;10.50;96.70
22145;DHT22;11238;48.730;11.566;2023-02-21T10:15:04;10.50;97.60
22145;DHT22;11238;48.730;11.566;2023-02-21T10:20:42;10.70;96.20
22145;DHT22;11238;48.730;11.566;2023-02-21T10:23:21;10.80;95.60
22145;DHT22;11238;48.730;11.566;2023-02-21T10:25:50;10.70;95.50
22145;DHT22;11238;48.730;11.566;2023-02-21T10:28:21;10.80;95.10
22145;DHT22;11238;48.730;11.566;2023-02-21T10:30:49;10.90;95.20
22145;DHT22;11238;48.730;11.566;2023-02-21T10:33:16;11.00;94.70
22145;DHT22;11238;48.730;11.566;2023-02-21T10:35:42;11.10;95.00
22145;DHT22;11238;48.730;11.566;2023-02-21T10:38:14;11.40;94.70
22145;DHT22;11238;48.730;11.566;2023-02-21T10:40:44;11.60;94.80
22145;DHT22;11238;48.730;11.566;2023-02-21T10:43:22;11.50;92.70
22145;DHT22;11238;48.730;11.566;2023-02-21T10:48:41;11.90;94.40
22145;DHT22;11238;48.730;11.566;2023-02-21T10:51:10;12.00;92.80
22145;DHT22;11238;48.730;11.566;2023-02-21T10:53:41;12.00;94.20
22145;DHT22;11238;48.730;11.566;2023-02-21T10:58:58;12.10;92.90
22145;DHT22;11238;48.730;11.566;2023-02-21T11:03:53;12.20;92.70
22145;DHT22;11238;48.730;11.566;2023-02-21T11:06:23;12.10;93.20
22145;DHT22;11238;48.730;11.566;2023-02-21T11:08:49;12.20;92.90
22145;DHT22;11238;48.730;11.566;2023-02-21T11:11:16;12.20;93.70
22145;DHT22;11238;48.730;11.566;2023-02-21T11:16:43;12.50;92.60
22145;DHT22;11238;48.730;11.566;2023-02-21T11:19:12;12.50;93.00
22145;DHT22;11238;48.730;11.566;2023-02-21T11:21:39;12.40;92.40
22145;DHT22;11238;48.730;11.566;2023-02-21T11:24:10;12.50;92.20
22145;DHT22;11238;48.730;11.566;2023-02-21T11:26:44;12.50;93.60
22145;DHT22;11238;48.730;11.566;2023-02-21T11:29:15;12.80;94.50
22145;DHT22;11238;48.730;11.566;2023-02-21T11:31:42;12.70;93.60
22145;DHT22;11238;48.730;11.566;2023-02-21T11:34:12;12.90;92.20
22145;DHT22;11238;48.730;11.566;2023-02-21T11:36:41;12.90;92.10
22145;DHT22;11238;48.730;11.566;2023-02-21T11:39:25;12.90;92.10
22145;DHT22;11238;48.730;11.566;2023-02-21T11:41:58;12.90;91.60
22145;DHT22;11238;48.730;11.566;2023-02-21T11:47:55;13.30;91.30
22145;DHT22;11238;48.730;11.566;2023-02-21T11:50:20;13.50;91.20
22145;DHT22;11238;48.730;11.566;2023-02-21T11:53:19;13.30;91.40
22145;DHT22;11238;48.730;11.566;2023-02-21T11:55:58;13.30;91.60
22145;DHT22;11238;48.730;11.566;2023-02-21T11:58:38;13.20;91.80
22145;DHT22;11238;48.730;11.566;2023-02-21T12:01:10;13.40;91.70
22145;DHT22;11238;48.730;11.566;2023-02-21T12:06:19;13.70;91.30
22145;DHT22;11238;48.730;11.566;2023-02-21T12:09:06;13.80;90.20
22145;DHT22;11238;48.730;11.566;2023-02-21T12:11:50;14.10;90.00
22145;DHT22;11238;48.730;11.566;2023-02-21T12:20:05;14.30;88.70
22145;DHT22;11238;48.730;11.566;2023-02-21T12:29:13;14.50;88.10
22145;DHT22;11238;48.730;11.566;2023-02-21T12:34:21;14.20;87.60
22145;DHT22;11238;48.730;11.566;2023-02-21T12:36:56;14.70;89.30
22145;DHT22;11238;48.730;11.566;2023-02-21T12:39:35;15.00;87.20
22145;DHT22;11238;48.730;11.566;2023-02-21T12:42:14;14.90;85.60
22145;DHT22;11238;48.730;11.566;2023-02-21T12:44:50;15.10;85.30
22145;DHT22;11238;48.730;11.566;2023-02-21T12:50:26;14.50;88.00
22145;DHT22;11238;48.730;11.566;2023-02-21T12:52:59;14.70;85.90
22145;DHT22;11238;48.730;11.566;2023-02-21T12:55:40;14.70;87.40
22145;DHT22;11238;48.730;11.566;2023-02-21T12:58:22;14.90;88.50
22145;DHT22;11238;48.730;11.566;2023-02-21T13:01:10;14.60;87.90
22145;DHT22;11238;48.730;11.566;2023-02-21T13:04:05;14.60;86.80
22145;DHT22;11238;48.730;11.566;2023-02-21T13:10:00;14.60;86.20
22145;DHT22;11238;48.730;11.566;2023-02-21T13:12:38;14.70;89.00
22145;DHT22;11238;48.730;11.566;2023-02-21T13:17:42;14.70;86.90
22145;DHT22;11238;48.730;11.566;2023-02-21T13:20:17;15.00;86.50
22145;DHT22;11238;48.730;11.566;2023-02-21T13:22:47;15.00;84.80
22145;DHT22;11238;48.730;11.566;2023-02-21T13:30:41;15.30;84.70
22145;DHT22;11238;48.730;11.566;2023-02-21T13:33:24;15.10;84.30
22145;DHT22;11238;48.730;11.566;2023-02-21T13:35:50;15.40;83.50
22145;DHT22;11238;48.730;11.566;2023-02-21T13:38:18;15.30;84.90
22145;DHT22;11238;48.730;11.566;2023-02-21T13:41:12;15.60;84.20
22145;DHT22;11238;48.730;11.566;2023-02-21T13:43:49;15.70;82.70
22145;DHT22;11238;48.730;11.566;2023-02-21T13:57:44;15.80;83.20
22145;DHT22;11238;48.730;11.566;2023-02-21T14:08:13;15.60;82.90
22145;DHT22;11238;48.730;11.566;2023-02-21T14:10:44;15.60;83.10
22145;DHT22;11238;48.730;11.566;2023-02-21T14:15:57;15.70;82.20
22145;DHT22;11238;48.730;11.566;2023-02-21T14:18:25;15.70;83.30
22145;DHT22;11238;48.730;11.566;2023-02-21T14:20:54;15.40;83.10
22145;DHT22;11238;48.730;11.566;2023-02-21T14:23:23;15.60;83.20
22145;DHT22;11238;48.730;11.566;2023-02-21T14:25:54;15.50;83.60
22145;DHT22;11238;48.730;11.566;2023-02-21T14:29:43;15.50;83.60
22145;DHT22;11238;48.730;11.566;2023-02-21T14:34:16;15.80;83.30
22145;DHT22;11238;48.730;11.566;2023-02-21T14:36:45;15.70;83.50
22145;DHT22;11238;48.730;11.566;2023-02-21T14:39:13;15.70;83.60
22145;DHT22;11238;48.730;11.566;2023-02-21T14:44:58;15.70;82.50
22145;DHT22;11238;48.730;11.566;2023-02-21T14:50:35;15.70;83.00
22145;DHT22;11238;48.730;11.566;2023-02-21T14:56:29;15.70;82.30
22145;DHT22;11238;48.730;11.566;2023-02-21T14:59:44;15.70;83.80
22145;DHT22;11238;48.730;11.566;2023-02-21T15:05:35;15.50;84.70
22145;DHT22;11238;48.730;11.566;2023-02-21T15:08:19;15.30;84.50
22145;DHT22;11238;48.730;11.566;2023-02-21T15:10:48;15.60;85.80
22145;DHT22;11238;48.730;11.566;2023-02-21T15:13:33;15.60;83.50
22145;DHT22;11238;48.730;11.566;2023-02-21T15:16:07;15.60;83.70
22145;DHT22;11238;48.730;11.566;2023-02-21T15:18:36;15.40;84.30
22145;DHT22;11238;48.730;11.566;2023-02-21T15:23:31;15.40;84.80
22145;DHT22;11238;48.730;11.566;2023-02-21T15:26:00;15.30;83.50
22145;DHT22;11238;48.730;11.566;2023-02-21T15:28:31;15.10;85.20
22145;DHT22;11238;48.730;11.566;2023-02-21T15:31:05;15.00;85.60
22145;DHT22;11238;48.730;11.566;2023-02-21T15:33:41;14.90;86.70
22145;DHT22;11238;48.730;11.566;2023-02-21T15:36:14;14.90;86.30
22145;DHT22;11238;48.730;11.566;2023-02-21T15:38:51;14.70;86.90
22145;DHT22;11238;48.730;11.566;2023-02-21T15:41:41;14.70;87.50
22145;DHT22;11238;48.730;11.566;2023-02-21T15:46:55;14.70;87.30
22145;DHT22;11238;48.730;11.566;2023-02-21T15:49:31;14.70;86.90
22145;DHT22;11238;48.730;11.566;2023-02-21T15:52:02;14.70;88.40
22145;DHT22;11238;48.730;11.566;2023-02-21T15:54:34;14.60;89.40
22145;DHT22;11238;48.730;11.566;2023-02-21T15:59:31;14.50;89.40
22145;DHT22;11238;48.730;11.566;2023-02-21T16:02:14;14.40;88.20
22145;DHT22;11238;48.730;11.566;2023-02-21T16:04:50;14.60;89.10
22145;DHT22;11238;48.730;11.566;2023-02-21T16:07:30;14.60;89.10
22145;DHT22;11238;48.730;11.566;2023-02-21T16:10:04;14.50;89.90
22145;DHT22;11238;48.730;11.566;2023-02-21T16:12:39;14.60;89.60
22145;DHT22;11238;48.730;11.566;2023-02-21T16:17:43;14.40;89.60
22145;DHT22;11238;48.730;11.566;2023-02-21T16:20:16;14.40;90.30
22145;DHT22;11238;48.730;11.566;2023-02-21T16:22:45;14.50;89.80
22145;DHT22;11238;48.730;11.566;2023-02-21T16:27:49;14.30;88.80
22145;DHT22;11238;48.730;11.566;2023-02-21T16:30:28;14.20;88.90
22145;DHT22;11238;48.730;11.566;2023-02-21T16:33:03;14.10;89.20
22145;DHT22;11238;48.730;11.566;2023-02-21T16:35:30;14.00;89.40
22145;DHT22;11238;48.730;11.566;2023-02-21T16:37:58;13.90;90.00
22145;DHT22;11238;48.730;11.566;2023-02-21T16:40:27;13.70;90.20
22145;DHT22;11238;48.730;11.566;2023-02-21T16:42:54;13.60;90.40
22145;DHT22;11238;48.730;11.566;2023-02-21T16:45:21;13.50;90.60
22145;DHT22;11238;48.730;11.566;2023-02-21T16:47:50;13.40;90.70
22145;DHT22;11238;48.730;11.566;2023-02-21T16:50:25;13.30;90.90
22145;DHT22;11238;48.730;11.566;2023-02-21T16:52:52;13.20;90.90
22145;DHT22;11238;48.730;11.566;2023-02-21T16:55:18;13.20;91.00
22145;DHT22;11238;48.730;11.566;2023-02-21T16:57:48;13.20;91.10
22145;DHT22;11238;48.730;11.566;2023-02-21T17:00:17;13.10;91.10
22145;DHT22;11238;48.730;11.566;2023-02-21T17:02:48;13.00;91.10
22145;DHT22;11238;48.730;11.566;2023-02-21T17:05:14;12.90;91.30
22145;DHT22;11238;48.730;11.566;2023-02-21T17:07:41;12.80;91.40
22145;DHT22;11238;48.730;11.566;2023-02-21T17:10:07;12.70;91.50
22145;DHT22;11238;48.730;11.566;2023-02-21T17:12:34;12.70;91.80
22145;DHT22;11238;48.730;11.566;2023-02-21T17:15:00;12.60;91.90
22145;DHT22;11238;48.730;11.566;2023-02-21T17:17:27;12.60;91.90
22145;DHT22;11238;48.730;11.566;2023-02-21T17:19:52;12.50;91.80
22145;DHT22;11238;48.730;11.566;2023-02-21T17:22:19;12.40;92.00
22145;DHT22;11238;48.730;11.566;2023-02-21T17:24:44;12.40;92.00
22145;DHT22;11238;48.730;11.566;2023-02-21T17:27:10;12.20;92.10
22145;DHT22;11238;48.730;11.566;2023-02-21T17:29:36;12.10;92.20
22145;DHT22;11238;48.730;11.566;2023-02-21T17:32:03;12.10;92.40
22145;DHT22;11238;48.730;11.566;2023-02-21T17:34:35;12.00;92.80
22145;DHT22;11238;48.730;11.566;2023-02-21T17:37:02;11.90;92.80
22145;DHT22;11238;48.730;11.566;2023-02-21T17:39:28;11.60;93.30
22145;DHT22;11238;48.730;11.566;2023-02-21T17:41:55;11.40;93.50
22145;DHT22;11238;48.730;11.566;2023-02-21T17:44:21;11.40;93.80
22145;DHT22;11238;48.730;11.566;2023-02-21T17:46:53;11.40;93.70
22145;DHT22;11238;48.730;11.566;2023-02-21T17:49:24;11.40;93.80
22145;DHT22;11238;48.730;11.566;2023-02-21T17:51:51;11.30;94.00
22145;DHT22;11238;48.730;11.566;2023-02-21T17:54:20;11.30;93.80
22145;DHT22;11238;48.730;11.566;2023-02-21T17:56:48;11.20;93.80
22145;DHT22;11238;48.730;11.566;2023-02-21T17:59:14;11.20;93.90
22145;DHT22;11238;48.730;11.566;2023-02-21T18:01:40;11.00;94.00
22145;DHT22;11238;48.730;11.566;2023-02-21T18:04:27;10.90;94.20
22145;DHT22;11238;48.730;11.566;2023-02-21T18:06:55;10.80;94.60
22145;DHT22;11238;48.730;11.566;2023-02-21T18:09:21;10.80;94.70
22145;DHT22;11238;48.730;11.566;2023-02-21T18:11:51;10.80;94.80
22145;DHT22;11238;48.730;11.566;2023-02-21T18:14:17;10.70;94.60
22145;DHT22;11238;48.730;11.566;2023-02-21T18:16:43;10.70;94.40
22145;DHT22;11238;48.730;11.566;2023-02-21T18:19:10;10.60;94.70